sensor_id;sensor_type;location;lat;lon;timestamp;temperature;humidity
22112;DHT22;11222;50.872;4.312;2022-10-18T00:01:46;18.00;99.90
22112;DHT22;11222;50.872;4.312;2022-10-18T00:04:12;18.10;99.90
22112;DHT22;11222;50.872;4.312;2022-10-18T00:06:38;18.00;99.90
22112;DHT22;11222;50.872;4.312;2022-10-18T00:09:04;18.00;99.90
22112;DHT22;11222;50.872;4.312;2022-10-18T00:11:29;17.90;99.90
22112;DHT22;11222;50.872;4.312;2022-10-18T00:13:56;17.90;99.90
22112;DHT22;11222;50.872;4.312;2022-10-18T00:16:22;18.10;99.90
22112;DHT22;11222;50.872;4.312;2022-10-18T00:18:47;17.90;99.90
22112;DHT22;11222;50.872;4.312;2022-10-18T00:21:15;17.90;99.90
22112;DHT22;11222;50.872;4.312;2022-10-18T00:23:41;18.00;99.90
22112;DHT22;11222;50.872;4.312;2022-10-18T00:26:20;18.10;99.90
22112;DHT22;11222;50.872;4.312;2022-10-18T00:28:49;17.90;99.90
22112;DHT22;11222;50.872;4.312;2022-10-18T00:31:17;17.80;99.90
22112;DHT22;11222;50.872;4.312;2022-10-18T00:33:44;17.70;99.90
22112;DHT22;11222;50.872;4.312;2022-10-18T00:36:11;17.70;99.90
22112;DHT22;11222;50.872;4.312;2022-10-18T00:38:37;17.70;99.90
22112;DHT22;11222;50.872;4.312;2022-10-18T00:41:05;17.80;99.90
22112;DHT22;11222;50.872;4.312;2022-10-18T00:43:31;17.80;99.90
22112;DHT22;11222;50.872;4.312;2022-10-18T00:45:57;17.90;99.90
22112;DHT22;11222;50.872;4.312;2022-10-18T00:48:23;17.90;99.90
22112;DHT22;11222;50.872;4.312;2022-10-18T00:50:50;17.90;99.90
22112;DHT22;11222;50.872;4.312;2022-10-18T00:53:18;17.80;99.90
22112;DHT22;11222;50.872;4.312;2022-10-18T00:55:44;17.80;99.90
22112;DHT22;11222;50.872;4.312;2022-10-18T00:58:14;17.80;99.90
22112;DHT22;11222;50.872;4.312;2022-10-18T01:00:40;17.80;99.90
22112;DHT22;11222;50.872;4.312;2022-10-18T01:03:07;17.80;99.90
22112;DHT22;11222;50.872;4.312;2022-10-18T01:05:40;17.90;99.90
22112;DHT22;11222;50.872;4.312;2022-10-18T01:08:21;17.90;99.90
22112;DHT22;11222;50.872;4.312;2022-10-18T01:13:47;17.90;99.90
22112;DHT22;11222;50.872;4.312;2022-10-18T01:21:31;17.80;99.90
22112;DHT22;11222;50.872;4.312;2022-10-18T01:32:29;18.00;99.90
22112;DHT22;11222;50.872;4.312;2022-10-18T01:35:03;17.90;99.90
22112;DHT22;11222;50.872;4.312;2022-10-18T01:37:31;18.00;99.90
22112;DHT22;11222;50.872;4.312;2022-10-18T01:39:59;18.10;99.90
22112;DHT22;11222;50.872;4.312;2022-10-18T01:42:27;18.10;99.90
22112;DHT22;11222;50.872;4.312;2022-10-18T01:44:54;18.10;99.90
22112;DHT22;11222;50.872;4.312;2022-10-18T01:47:20;18.10;99.90
22112;DHT22;11222;50.872;4.312;2022-10-18T01:49:46;18.00;99.90
22112;DHT22;11222;50.872;4.312;2022-10-18T01:52:14;17.90;99.90
22112;DHT22;11222;50.872;4.312;2022-10-18T01:54:44;17.90;99.90
22112;DHT22;11222;50.872;4.312;2022-10-18T01:57:34;17.80;99.90
22112;DHT22;11222;50.872;4.312;2022-10-18T02:00:18;17.80;99.90
22112;DHT22;11222;50.872;4.312;2022-10-18T02:02:51;17.80;99.90
22112;DHT22;11222;50.872;4.312;2022-10-18T02:05:29;17.80;99.90
22112;DHT22;11222;50.872;4.312;2022-10-18T02:13:09;17.70;99.90
22112;DHT22;11222;50.872;4.312;2022-10-18T02:15:38;17.70;99.90
22112;DHT22;11222;50.872;4.312;2022-10-18T02:18:11;17.60;99.90
22112;DHT22;11222;50.872;4.312;2022-10-18T02:20:38;17.70;99.90
22112;DHT22;11222;50.872;4.312;2022-10-18T02:23:06;17.70;99.90
22112;DHT22;11222;50.872;4.312;2022-10-18T02:25:34;17.60;99.90
22112;DHT22;11222;50.872;4.312;2022-10-18T02:28:01;17.60;99.90
22112;DHT22;11222;50.872;4.312;2022-10-18T02:30:36;17.70;99.90
22112;DHT22;11222;50.872;4.312;2022-10-18T02:33:17;17.70;99.90
22112;DHT22;11222;50.872;4.312;2022-10-18T02:35:50;17.70;99.90
22112;DHT22;11222;50.872;4.312;2022-10-18T02:38:19;17.70;99.90
22112;DHT22;11222;50.872;4.312;2022-10-18T02:40:45;17.80;99.90
22112;DHT22;11222;50.872;4.312;2022-10-18T02:43:13;17.70;99.90
22112;DHT22;11222;50.872;4.312;2022-10-18T02:45:39;17.70;99.90
22112;DHT22;11222;50.872;4.312;2022-10-18T02:48:05;17.70;99.90
22112;DHT22;11222;50.872;4.312;2022-10-18T02:50:31;17.60;99.90
22112;DHT22;11222;50.872;4.312;2022-10-18T02:52:56;17.60;99.90
22112;DHT22;11222;50.872;4.312;2022-10-18T02:55:22;17.60;99.90
22112;DHT22;11222;50.872;4.312;2022-10-18T02:57:48;17.60;99.90
22112;DHT22;11222;50.872;4.312;2022-10-18T03:00:14;17.60;99.90
22112;DHT22;11222;50.872;4.312;2022-10-18T03:02:39;17.60;99.90
22112;DHT22;11222;50.872;4.312;2022-10-18T03:05:05;17.50;99.90
22112;DHT22;11222;50.872;4.312;2022-10-18T03:07:31;17.50;99.90
22112;DHT22;11222;50.872;4.312;2022-10-18T03:09:56;17.50;99.90
22112;DHT22;11222;50.872;4.312;2022-10-18T03:12:22;17.50;99.90
22112;DHT22;11222;50.872;4.312;2022-10-18T03:14:48;17.60;99.90
22112;DHT22;11222;50.872;4.312;2022-10-18T03:17:13;17.60;99.90
22112;DHT22;11222;50.872;4.312;2022-10-18T03:19:39;17.60;99.90
22112;DHT22;11222;50.872;4.312;2022-10-18T03:22:05;17.70;99.90
22112;DHT22;11222;50.872;4.312;2022-10-18T03:24:30;17.70;99.90
22112;DHT22;11222;50.872;4.312;2022-10-18T03:26:56;17.70;99.90
22112;DHT22;11222;50.872;4.312;2022-10-18T03:29:22;17.80;99.90
22112;DHT22;11222;50.872;4.312;2022-10-18T03:31:47;17.80;99.90
22112;DHT22;11222;50.872;4.312;2022-10-18T03:34:13;17.80;99.90
22112;DHT22;11222;50.872;4.312;2022-10-18T03:36:40;17.70;99.90
22112;DHT22;11222;50.872;4.312;2022-10-18T03:39:06;17.70;99.90
22112;DHT22;11222;50.872;4.312;2022-10-18T03:41:32;17.70;99.90
22112;DHT22;11222;50.872;4.312;2022-10-18T03:43:57;17.80;99.90
22112;DHT22;11222;50.872;4.312;2022-10-18T03:46:23;17.70;99.90
22112;DHT22;11222;50.872;4.312;2022-10-18T03:48:48;17.70;99.90
22112;DHT22;11222;50.872;4.312;2022-10-18T03:51:14;17.70;99.90
22112;DHT22;11222;50.872;4.312;2022-10-18T03:53:40;17.70;99.90
22112;DHT22;11222;50.872;4.312;2022-10-18T03:56:05;17.60;99.90
22112;DHT22;11222;50.872;4.312;2022-10-18T03:58:31;17.50;99.90
22112;DHT22;11222;50.872;4.312;2022-10-18T04:00:57;17.50;99.90
22112;DHT22;11222;50.872;4.312;2022-10-18T04:03:22;17.40;99.90
22112;DHT22;11222;50.872;4.312;2022-10-18T04:05:49;17.40;99.90
22112;DHT22;11222;50.872;4.312;2022-10-18T04:08:15;17.50;99.90
22112;DHT22;11222;50.872;4.312;2022-10-18T04:10:41;17.50;99.90
22112;DHT22;11222;50.872;4.312;2022-10-18T04:13:07;17.40;99.90
22112;DHT22;11222;50.872;4.312;2022-10-18T04:15:33;17.40;99.90
22112;DHT22;11222;50.872;4.312;2022-10-18T04:17:59;17.50;99.90
22112;DHT22;11222;50.872;4.312;2022-10-18T04:20:25;17.40;99.90
22112;DHT22;11222;50.872;4.312;2022-10-18T04:22:51;17.30;99.90
22112;DHT22;11222;50.872;4.312;2022-10-18T04:25:20;17.20;99.90
22112;DHT22;11222;50.872;4.312;2022-10-18T04:27:46;17.20;99.90
22112;DHT22;11222;50.872;4.312;2022-10-18T04:30:11;17.20;99.90
22112;DHT22;11222;50.872;4.312;2022-10-18T04:32:37;17.20;99.90
22112;DHT22;11222;50.872;4.312;2022-10-18T04:35:04;17.30;99.90
22112;DHT22;11222;50.872;4.312;2022-10-18T04:37:30;17.30;99.90
22112;DHT22;11222;50.872;4.312;2022-10-18T04:39:55;17.40;99.90
22112;DHT22;11222;50.872;4.312;2022-10-18T04:42:21;17.50;99.90
22112;DHT22;11222;50.872;4.312;2022-10-18T04:44:47;17.50;99.90
22112;DHT22;11222;50.872;4.312;2022-10-18T04:47:13;17.50;99.90
22112;DHT22;11222;50.872;4.312;2022-10-18T04:49:38;17.50;99.90
22112;DHT22;11222;50.872;4.312;2022-10-18T04:52:04;17.50;99.90
22112;DHT22;11222;50.872;4.312;2022-10-18T04:54:30;17.50;99.90
22112;DHT22;11222;50.872;4.312;2022-10-18T04:56:56;17.50;99.90
22112;DHT22;11222;50.872;4.312;2022-10-18T04:59:21;17.40;99.90
22112;DHT22;11222;50.872;4.312;2022-10-18T05:01:47;17.40;99.90
22112;DHT22;11222;50.872;4.312;2022-10-18T05:04:12;17.40;99.90
22112;DHT22;11222;50.872;4.312;2022-10-18T05:06:38;17.30;99.90
22112;DHT22;11222;50.872;4.312;2022-10-18T05:09:05;17.30;99.90
22112;DHT22;11222;50.872;4.312;2022-10-18T05:11:30;17.40;99.90
22112;DHT22;11222;50.872;4.312;2022-10-18T05:13:56;17.40;99.90
22112;DHT22;11222;50.872;4.312;2022-10-18T05:16:21;17.50;99.90
22112;DHT22;11222;50.872;4.312;2022-10-18T05:18:47;17.40;99.90
22112;DHT22;11222;50.872;4.312;2022-10-18T05:21:13;17.40;99.90
22112;DHT22;11222;50.872;4.312;2022-10-18T05:23:39;17.50;99.90
22112;DHT22;11222;50.872;4.312;2022-10-18T05:26:06;17.50;99.90
22112;DHT22;11222;50.872;4.312;2022-10-18T05:28:32;17.40;99.90
22112;DHT22;11222;50.872;4.312;2022-10-18T05:31:02;17.50;99.90
22112;DHT22;11222;50.872;4.312;2022-10-18T05:33:28;17.40;99.90
22112;DHT22;11222;50.872;4.312;2022-10-18T05:35:54;17.30;99.90
22112;DHT22;11222;50.872;4.312;2022-10-18T05:38:19;17.30;99.90
22112;DHT22;11222;50.872;4.312;2022-10-18T05:40:45;17.20;99.90
22112;DHT22;11222;50.872;4.312;2022-10-18T05:43:11;17.20;99.90
22112;DHT22;11222;50.872;4.312;2022-10-18T05:45:37;17.20;99.90
22112;DHT22;11222;50.872;4.312;2022-10-18T05:48:02;17.20;99.90
22112;DHT22;11222;50.872;4.312;2022-10-18T05:50:30;17.20;99.90
22112;DHT22;11222;50.872;4.312;2022-10-18T05:52:56;17.20;99.90
22112;DHT22;11222;50.872;4.312;2022-10-18T05:55:22;17.10;99.90
22112;DHT22;11222;50.872;4.312;2022-10-18T05:57:49;17.10;99.90
22112;DHT22;11222;50.872;4.312;2022-10-18T06:00:15;17.20;99.90
22112;DHT22;11222;50.872;4.312;2022-10-18T06:02:41;17.20;99.90
22112;DHT22;11222;50.872;4.312;2022-10-18T06:05:07;17.20;99.90
22112;DHT22;11222;50.872;4.312;2022-10-18T06:07:33;17.20;99.90
22112;DHT22;11222;50.872;4.312;2022-10-18T06:09:58;17.20;99.90
22112;DHT22;11222;50.872;4.312;2022-10-18T06:12:24;17.10;99.90
22112;DHT22;11222;50.872;4.312;2022-10-18T06:14:49;17.10;99.90
22112;DHT22;11222;50.872;4.312;2022-10-18T06:17:15;17.20;99.90
22112;DHT22;11222;50.872;4.312;2022-10-18T06:19:41;17.10;99.90
22112;DHT22;11222;50.872;4.312;2022-10-18T06:22:09;17.10;99.90
22112;DHT22;11222;50.872;4.312;2022-10-18T06:24:34;17.10;99.90
22112;DHT22;11222;50.872;4.312;2022-10-18T06:27:00;17.10;99.90
22112;DHT22;11222;50.872;4.312;2022-10-18T06:29:28;17.00;99.90
22112;DHT22;11222;50.872;4.312;2022-10-18T06:31:54;17.00;99.90
22112;DHT22;11222;50.872;4.312;2022-10-18T06:34:20;17.10;99.90
22112;DHT22;11222;50.872;4.312;2022-10-18T06:36:46;17.10;99.90
22112;DHT22;11222;50.872;4.312;2022-10-18T06:39:11;17.10;99.90
22112;DHT22;11222;50.872;4.312;2022-10-18T06:41:37;17.10;99.90
22112;DHT22;11222;50.872;4.312;2022-10-18T06:44:02;17.10;99.90
22112;DHT22;11222;50.872;4.312;2022-10-18T06:46:38;17.20;99.90
22112;DHT22;11222;50.872;4.312;2022-10-18T06:49:04;17.20;99.90
22112;DHT22;11222;50.872;4.312;2022-10-18T06:51:29;17.20;99.90
22112;DHT22;11222;50.872;4.312;2022-10-18T06:53:55;17.20;99.90
22112;DHT22;11222;50.872;4.312;2022-10-18T06:56:20;17.20;99.90
22112;DHT22;11222;50.872;4.312;2022-10-18T06:58:46;17.10;99.90
22112;DHT22;11222;50.872;4.312;2022-10-18T07:01:13;17.10;99.90
22112;DHT22;11222;50.872;4.312;2022-10-18T07:03:43;17.10;99.90
22112;DHT22;11222;50.872;4.312;2022-10-18T07:06:11;17.00;99.90
22112;DHT22;11222;50.872;4.312;2022-10-18T07:08:38;17.10;99.90
22112;DHT22;11222;50.872;4.312;2022-10-18T07:11:04;17.10;99.90
22112;DHT22;11222;50.872;4.312;2022-10-18T07:13:31;17.00;99.90
22112;DHT22;11222;50.872;4.312;2022-10-18T07:18:26;17.10;99.90
22112;DHT22;11222;50.872;4.312;2022-10-18T07:20:51;17.00;99.90
22112;DHT22;11222;50.872;4.312;2022-10-18T07:23:17;17.00;99.90
22112;DHT22;11222;50.872;4.312;2022-10-18T07:25:45;17.00;99.90
22112;DHT22;11222;50.872;4.312;2022-10-18T07:28:11;17.20;99.90
22112;DHT22;11222;50.872;4.312;2022-10-18T07:30:37;17.20;99.90
22112;DHT22;11222;50.872;4.312;2022-10-18T07:33:03;17.30;99.90
22112;DHT22;11222;50.872;4.312;2022-10-18T07:35:28;17.20;99.90
22112;DHT22;11222;50.872;4.312;2022-10-18T07:37:54;17.20;99.90
22112;DHT22;11222;50.872;4.312;2022-10-18T07:40:20;17.30;99.90
22112;DHT22;11222;50.872;4.312;2022-10-18T07:42:46;17.30;99.90
22112;DHT22;11222;50.872;4.312;2022-10-18T07:45:11;17.30;99.90
22112;DHT22;11222;50.872;4.312;2022-10-18T07:47:38;17.30;99.90
22112;DHT22;11222;50.872;4.312;2022-10-18T07:50:04;17.20;99.90
22112;DHT22;11222;50.872;4.312;2022-10-18T07:52:29;17.30;99.90
22112;DHT22;11222;50.872;4.312;2022-10-18T07:54:55;17.40;99.90
22112;DHT22;11222;50.872;4.312;2022-10-18T07:57:21;17.40;99.90
22112;DHT22;11222;50.872;4.312;2022-10-18T07:59:47;17.50;99.90
22112;DHT22;11222;50.872;4.312;2022-10-18T08:02:16;17.40;99.90
22112;DHT22;11222;50.872;4.312;2022-10-18T08:04:42;17.60;99.90
22112;DHT22;11222;50.872;4.312;2022-10-18T08:07:08;17.60;99.90
22112;DHT22;11222;50.872;4.312;2022-10-18T08:09:33;17.50;99.90
22112;DHT22;11222;50.872;4.312;2022-10-18T08:11:59;17.40;99.90
22112;DHT22;11222;50.872;4.312;2022-10-18T08:14:24;17.30;99.90
22112;DHT22;11222;50.872;4.312;2022-10-18T08:16:50;17.10;99.90
22112;DHT22;11222;50.872;4.312;2022-10-18T08:19:16;17.10;99.90
22112;DHT22;11222;50.872;4.312;2022-10-18T08:21:41;17.20;99.90
22112;DHT22;11222;50.872;4.312;2022-10-18T08:24:07;17.20;99.90
22112;DHT22;11222;50.872;4.312;2022-10-18T08:26:33;17.20;99.90
22112;DHT22;11222;50.872;4.312;2022-10-18T08:28:58;17.20;99.90
22112;DHT22;11222;50.872;4.312;2022-10-18T08:31:24;17.20;99.90
22112;DHT22;11222;50.872;4.312;2022-10-18T08:33:50;17.40;99.90
22112;DHT22;11222;50.872;4.312;2022-10-18T08:36:16;17.20;99.90
22112;DHT22;11222;50.872;4.312;2022-10-18T08:38:42;16.90;99.90
22112;DHT22;11222;50.872;4.312;2022-10-18T08:41:20;16.70;99.90
22112;DHT22;11222;50.872;4.312;2022-10-18T08:46:32;16.70;99.90
22112;DHT22;11222;50.872;4.312;2022-10-18T08:48:58;16.70;99.90
22112;DHT22;11222;50.872;4.312;2022-10-18T08:51:39;16.80;99.90
22112;DHT22;11222;50.872;4.312;2022-10-18T08:54:13;17.10;99.90
22112;DHT22;11222;50.872;4.312;2022-10-18T08:56:42;17.20;99.90
22112;DHT22;11222;50.872;4.312;2022-10-18T08:59:10;17.20;99.90
22112;DHT22;11222;50.872;4.312;2022-10-18T09:04:28;17.50;99.90
22112;DHT22;11222;50.872;4.312;2022-10-18T09:09:59;17.60;99.90
22112;DHT22;11222;50.872;4.312;2022-10-18T09:15:15;17.80;99.90
22112;DHT22;11222;50.872;4.312;2022-10-18T09:20:26;17.90;99.90
22112;DHT22;11222;50.872;4.312;2022-10-18T09:25:20;18.20;99.90
22112;DHT22;11222;50.872;4.312;2022-10-18T09:28:14;18.10;99.90
22112;DHT22;11222;50.872;4.312;2022-10-18T09:30:51;18.10;99.90
22112;DHT22;11222;50.872;4.312;2022-10-18T09:33:43;18.40;99.90
22112;DHT22;11222;50.872;4.312;2022-10-18T09:36:08;18.60;99.90
22112;DHT22;11222;50.872;4.312;2022-10-18T09:38:44;18.70;99.90
22112;DHT22;11222;50.872;4.312;2022-10-18T09:46:18;18.40;99.90
22112;DHT22;11222;50.872;4.312;2022-10-18T09:48:52;18.40;99.90
22112;DHT22;11222;50.872;4.312;2022-10-18T09:51:21;18.40;99.90
22112;DHT22;11222;50.872;4.312;2022-10-18T09:56:56;18.40;99.90
22112;DHT22;11222;50.872;4.312;2022-10-18T09:59:40;18.40;99.90
22112;DHT22;11222;50.872;4.312;2022-10-18T10:02:15;18.70;99.90
22112;DHT22;11222;50.872;4.312;2022-10-18T10:05:13;18.90;99.90
22112;DHT22;11222;50.872;4.312;2022-10-18T10:07:45;19.00;99.90
22112;DHT22;11222;50.872;4.312;2022-10-18T10:10:27;19.00;99.90
22112;DHT22;11222;50.872;4.312;2022-10-18T10:13:16;19.00;99.90
22112;DHT22;11222;50.872;4.312;2022-10-18T10:15:59;19.00;99.90
22112;DHT22;11222;50.872;4.312;2022-10-18T10:18:33;19.10;99.90
22112;DHT22;11222;50.872;4.312;2022-10-18T10:21:11;19.60;99.90
22112;DHT22;11222;50.872;4.312;2022-10-18T10:23:44;21.00;99.90
22112;DHT22;11222;50.872;4.312;2022-10-18T10:28:45;24.60;99.90
22112;DHT22;11222;50.872;4.312;2022-10-18T10:31:32;26.20;99.90
22112;DHT22;11222;50.872;4.312;2022-10-18T10:34:19;27.80;99.90
22112;DHT22;11222;50.872;4.312;2022-10-18T10:36:48;28.30;99.90
22112;DHT22;11222;50.872;4.312;2022-10-18T10:39:15;27.80;99.90
22112;DHT22;11222;50.872;4.312;2022-10-18T10:41:55;28.20;99.90
22112;DHT22;11222;50.872;4.312;2022-10-18T10:44:28;29.50;99.60
22112;DHT22;11222;50.872;4.312;2022-10-18T10:46:55;30.50;95.30
22112;DHT22;11222;50.872;4.312;2022-10-18T10:49:29;32.40;92.30
22112;DHT22;11222;50.872;4.312;2022-10-18T10:52:05;33.00;84.70
22112;DHT22;11222;50.872;4.312;2022-10-18T10:54:32;31.90;85.40
22112;DHT22;11222;50.872;4.312;2022-10-18T10:57:26;31.20;90.20
22112;DHT22;11222;50.872;4.312;2022-10-18T10:59:54;30.00;88.70
22112;DHT22;11222;50.872;4.312;2022-10-18T11:02:22;30.80;88.30
22112;DHT22;11222;50.872;4.312;2022-10-18T11:04:52;31.40;87.20
22112;DHT22;11222;50.872;4.312;2022-10-18T11:07:40;32.70;83.40
22112;DHT22;11222;50.872;4.312;2022-10-18T11:10:13;34.30;77.20
22112;DHT22;11222;50.872;4.312;2022-10-18T11:12:47;35.70;72.00
22112;DHT22;11222;50.872;4.312;2022-10-18T11:15:40;34.90;71.60
22112;DHT22;11222;50.872;4.312;2022-10-18T11:20:43;34.50;72.20
22112;DHT22;11222;50.872;4.312;2022-10-18T11:23:12;32.70;73.10
22112;DHT22;11222;50.872;4.312;2022-10-18T11:25:57;30.10;81.30
22112;DHT22;11222;50.872;4.312;2022-10-18T11:45:31;30.00;86.00
22112;DHT22;11222;50.872;4.312;2022-10-18T11:56:32;33.60;75.20
22112;DHT22;11222;50.872;4.312;2022-10-18T11:59:32;33.20;74.10
22112;DHT22;11222;50.872;4.312;2022-10-18T12:04:43;29.90;82.60
22112;DHT22;11222;50.872;4.312;2022-10-18T12:07:12;28.80;90.40
22112;DHT22;11222;50.872;4.312;2022-10-18T12:09:42;28.00;93.20
22112;DHT22;11222;50.872;4.312;2022-10-18T12:12:10;27.40;97.00
22112;DHT22;11222;50.872;4.312;2022-10-18T12:14:45;26.70;98.10
22112;DHT22;11222;50.872;4.312;2022-10-18T12:17:54;26.00;99.90
22112;DHT22;11222;50.872;4.312;2022-10-18T12:22:59;24.50;99.90
22112;DHT22;11222;50.872;4.312;2022-10-18T12:25:28;23.80;99.90
22112;DHT22;11222;50.872;4.312;2022-10-18T12:33:29;22.30;99.90
22112;DHT22;11222;50.872;4.312;2022-10-18T12:36:10;22.10;99.90
22112;DHT22;11222;50.872;4.312;2022-10-18T12:38:41;21.90;99.90
22112;DHT22;11222;50.872;4.312;2022-10-18T12:41:18;21.80;99.90
22112;DHT22;11222;50.872;4.312;2022-10-18T12:44:01;21.60;99.90
22112;DHT22;11222;50.872;4.312;2022-10-18T12:46:46;21.60;99.90
22112;DHT22;11222;50.872;4.312;2022-10-18T12:49:13;21.40;99.90
22112;DHT22;11222;50.872;4.312;2022-10-18T12:52:23;21.30;99.90
22112;DHT22;11222;50.872;4.312;2022-10-18T13:16:02;20.70;99.90
22112;DHT22;11222;50.872;4.312;2022-10-18T13:21:25;20.60;99.90
22112;DHT22;11222;50.872;4.312;2022-10-18T13:26:53;20.80;99.90
22112;DHT22;11222;50.872;4.312;2022-10-18T13:41:26;20.50;99.90
22112;DHT22;11222;50.872;4.312;2022-10-18T13:46:19;20.20;99.90
22112;DHT22;11222;50.872;4.312;2022-10-18T13:53:57;19.90;99.90
22112;DHT22;11222;50.872;4.312;2022-10-18T14:02:00;20.20;99.90
22112;DHT22;11222;50.872;4.312;2022-10-18T14:07:33;20.30;99.90
22112;DHT22;11222;50.872;4.312;2022-10-18T14:09:59;20.30;99.90
22112;DHT22;11222;50.872;4.312;2022-10-18T14:12:37;20.30;99.90
22112;DHT22;11222;50.872;4.312;2022-10-18T14:17:49;20.20;99.90
22112;DHT22;11222;50.872;4.312;2022-10-18T14:22:56;20.40;99.90
22112;DHT22;11222;50.872;4.312;2022-10-18T14:25:29;20.50;99.90
22112;DHT22;11222;50.872;4.312;2022-10-18T14:28:14;20.50;99.90
22112;DHT22;11222;50.872;4.312;2022-10-18T14:33:38;20.60;99.90
22112;DHT22;11222;50.872;4.312;2022-10-18T14:36:14;20.50;99.90
22112;DHT22;11222;50.872;4.312;2022-10-18T14:43:41;20.10;99.90
22112;DHT22;11222;50.872;4.312;2022-10-18T14:46:29;20.10;99.90
22112;DHT22;11222;50.872;4.312;2022-10-18T14:48:59;20.00;99.90
22112;DHT22;11222;50.872;4.312;2022-10-18T14:51:27;20.10;99.90
22112;DHT22;11222;50.872;4.312;2022-10-18T14:53:54;20.30;99.90
22112;DHT22;11222;50.872;4.312;2022-10-18T14:56:29;20.40;99.90
22112;DHT22;11222;50.872;4.312;2022-10-18T14:58:56;20.40;99.90
22112;DHT22;11222;50.872;4.312;2022-10-18T15:01:29;20.50;99.90
22112;DHT22;11222;50.872;4.312;2022-10-18T15:04:01;20.40;99.90
22112;DHT22;11222;50.872;4.312;2022-10-18T15:06:31;20.50;99.90
22112;DHT22;11222;50.872;4.312;2022-10-18T15:08:59;20.40;99.90
22112;DHT22;11222;50.872;4.312;2022-10-18T15:11:26;20.40;99.90
22112;DHT22;11222;50.872;4.312;2022-10-18T15:13:56;20.40;99.90
22112;DHT22;11222;50.872;4.312;2022-10-18T15:16:24;20.40;99.90
22112;DHT22;11222;50.872;4.312;2022-10-18T15:21:27;20.20;99.90
22112;DHT22;11222;50.872;4.312;2022-10-18T15:23:53;20.10;99.90
22112;DHT22;11222;50.872;4.312;2022-10-18T15:26:25;20.00;99.90
22112;DHT22;11222;50.872;4.312;2022-10-18T15:28:54;20.00;99.90
22112;DHT22;11222;50.872;4.312;2022-10-18T15:31:31;19.90;99.90
22112;DHT22;11222;50.872;4.312;2022-10-18T15:34:21;19.90;99.90
22112;DHT22;11222;50.872;4.312;2022-10-18T15:36:49;19.90;99.90
22112;DHT22;11222;50.872;4.312;2022-10-18T15:39:21;20.00;99.90
22112;DHT22;11222;50.872;4.312;2022-10-18T15:52:32;19.90;99.90
22112;DHT22;11222;50.872;4.312;2022-10-18T15:54:58;19.90;99.90
22112;DHT22;11222;50.872;4.312;2022-10-18T15:57:24;19.80;99.90
22112;DHT22;11222;50.872;4.312;2022-10-18T16:00:03;19.80;99.90
22112;DHT22;11222;50.872;4.312;2022-10-18T16:02:30;19.90;99.90
22112;DHT22;11222;50.872;4.312;2022-10-18T16:04:58;19.80;99.90
22112;DHT22;11222;50.872;4.312;2022-10-18T16:07:24;19.90;99.90
22112;DHT22;11222;50.872;4.312;2022-10-18T16:09:50;19.80;99.90
22112;DHT22;11222;50.872;4.312;2022-10-18T16:12:15;19.70;99.90
22112;DHT22;11222;50.872;4.312;2022-10-18T16:14:41;19.70;99.90
22112;DHT22;11222;50.872;4.312;2022-10-18T16:17:09;19.60;99.90
22112;DHT22;11222;50.872;4.312;2022-10-18T16:19:41;19.50;99.90
22112;DHT22;11222;50.872;4.312;2022-10-18T16:22:10;19.40;99.90
22112;DHT22;11222;50.872;4.312;2022-10-18T16:24:36;19.40;99.90
22112;DHT22;11222;50.872;4.312;2022-10-18T16:27:02;19.40;99.90
22112;DHT22;11222;50.872;4.312;2022-10-18T16:29:28;19.40;99.90
22112;DHT22;11222;50.872;4.312;2022-10-18T16:31:56;19.40;99.90
22112;DHT22;11222;50.872;4.312;2022-10-18T16:34:23;19.30;99.90
22112;DHT22;11222;50.872;4.312;2022-10-18T16:36:52;19.30;99.90
22112;DHT22;11222;50.872;4.312;2022-10-18T16:39:19;19.30;99.90
22112;DHT22;11222;50.872;4.312;2022-10-18T16:41:45;19.20;99.90
22112;DHT22;11222;50.872;4.312;2022-10-18T16:44:11;19.10;99.90
22112;DHT22;11222;50.872;4.312;2022-10-18T16:46:37;19.00;99.90
22112;DHT22;11222;50.872;4.312;2022-10-18T16:49:03;19.00;99.90
22112;DHT22;11222;50.872;4.312;2022-10-18T16:51:29;18.90;99.90
22112;DHT22;11222;50.872;4.312;2022-10-18T16:53:56;18.90;99.90
22112;DHT22;11222;50.872;4.312;2022-10-18T16:56:26;18.90;99.90
22112;DHT22;11222;50.872;4.312;2022-10-18T16:58:53;18.80;99.90
22112;DHT22;11222;50.872;4.312;2022-10-18T17:01:20;18.80;99.90
22112;DHT22;11222;50.872;4.312;2022-10-18T17:03:46;18.60;99.90
22112;DHT22;11222;50.872;4.312;2022-10-18T17:06:19;18.60;99.90
22112;DHT22;11222;50.872;4.312;2022-10-18T17:08:44;18.60;99.90
22112;DHT22;11222;50.872;4.312;2022-10-18T17:11:11;18.50;99.90
22112;DHT22;11222;50.872;4.312;2022-10-18T17:13:37;18.50;99.90
22112;DHT22;11222;50.872;4.312;2022-10-18T17:16:03;18.40;99.90
22112;DHT22;11222;50.872;4.312;2022-10-18T17:18:29;18.30;99.90
22112;DHT22;11222;50.872;4.312;2022-10-18T17:20:55;18.30;99.90
22112;DHT22;11222;50.872;4.312;2022-10-18T17:23:23;18.20;99.90
22112;DHT22;11222;50.872;4.312;2022-10-18T17:25:49;18.20;99.90
22112;DHT22;11222;50.872;4.312;2022-10-18T17:28:16;18.20;99.90
22112;DHT22;11222;50.872;4.312;2022-10-18T17:30:43;18.10;99.90
22112;DHT22;11222;50.872;4.312;2022-10-18T17:33:09;18.10;99.90
22112;DHT22;11222;50.872;4.312;2022-10-18T17:35:35;18.10;99.90
22112;DHT22;11222;50.872;4.312;2022-10-18T17:38:02;18.10;99.90
22112;DHT22;11222;50.872;4.312;2022-10-18T17:40:28;18.00;99.90
22112;DHT22;11222;50.872;4.312;2022-10-18T17:42:54;18.00;99.90
22112;DHT22;11222;50.872;4.312;2022-10-18T17:45:20;18.00;99.90
22112;DHT22;11222;50.872;4.312;2022-10-18T17:47:47;17.90;99.90
22112;DHT22;11222;50.872;4.312;2022-10-18T17:50:14;17.90;99.90
22112;DHT22;11222;50.872;4.312;2022-10-18T17:52:45;17.70;99.90
22112;DHT22;11222;50.872;4.312;2022-10-18T17:55:12;17.70;99.90
22112;DHT22;11222;50.872;4.312;2022-10-18T17:57:39;17.70;99.90
22112;DHT22;11222;50.872;4.312;2022-10-18T18:00:07;17.60;99.90
22112;DHT22;11222;50.872;4.312;2022-10-18T18:02:34;17.50;99.90
22112;DHT22;11222;50.872;4.312;2022-10-18T18:05:00;17.30;99.90
22112;DHT22;11222;50.872;4.312;2022-10-18T18:07:26;17.10;99.90
22112;DHT22;11222;50.872;4.312;2022-10-18T18:09:52;17.00;99.90
22112;DHT22;11222;50.872;4.312;2022-10-18T18:12:18;17.00;99.90
22112;DHT22;11222;50.872;4.312;2022-10-18T18:14:44;17.00;99.90
22112;DHT22;11222;50.872;4.312;2022-10-18T18:17:10;16.90;99.90
22112;DHT22;11222;50.872;4.312;2022-10-18T18:19:37;16.80;99.90
22112;DHT22;11222;50.872;4.312;2022-10-18T18:22:02;16.80;99.90
22112;DHT22;11222;50.872;4.312;2022-10-18T18:24:29;16.80;99.90
22112;DHT22;11222;50.872;4.312;2022-10-18T18:26:55;16.70;99.90
22112;DHT22;11222;50.872;4.312;2022-10-18T18:29:22;16.60;99.90
22112;DHT22;11222;50.872;4.312;2022-10-18T18:31:48;16.60;99.90
22112;DHT22;11222;50.872;4.312;2022-10-18T18:34:15;16.50;99.90